Time;durP1;ratioP1;P1;durP2;ratioP2;P2;SDS_P1;SDS_P2;PMS_P1;PMS_P2;Temp;Humidity;BMP_temperature;BMP_pressure;BME280_temperature;BME280_humidity;BME280_pressure;Samples;Min_cycle;Max_cycle;Signal;HPM_P1;HPM_P2
2021/09/22 00:02:18;;;;;;;20.95;16.42;;;15.20;99.90;;;;;;4915519;29;20024;-89
2021/09/22 00:04:45;;;;;;;20.92;16.52;;;15.20;99.90;;;;;;4914648;29;20036;-89
2021/09/22 00:07:11;;;;;;;19.73;17.50;;;15.10;99.90;;;;;;4915256;29;20380;-93
2021/09/22 00:09:36;;;;;;;22.73;16.85;;;15.10;99.90;;;;;;4915445;29;20043;-88
2021/09/22 00:12:02;;;;;;;20.50;16.15;;;15.10;99.90;;;;;;4914915;29;20032;-89
2021/09/22 00:14:28;;;;;;;19.30;17.20;;;15.10;99.90;;;;;;4915446;29;20504;-89
2021/09/22 00:16:54;;;;;;;18.65;16.65;;;15.00;99.90;;;;;;4912272;29;20032;-88
2021/09/22 00:19:19;;;;;;;19.88;16.88;;;15.00;99.90;;;;;;4914508;29;20024;-88
2021/09/22 00:21:46;;;;;;;20.55;16.58;;;15.00;99.90;;;;;;4909106;29;20509;-88
2021/09/22 00:24:11;;;;;;;21.10;17.13;;;15.10;99.90;;;;;;4910461;29;20039;-88
2021/09/22 00:26:37;;;;;;;23.33;16.75;;;14.90;99.90;;;;;;4907876;29;20035;-88
2021/09/22 00:29:02;;;;;;;22.02;17.40;;;14.90;99.90;;;;;;4915488;29;20048;-88
2021/09/22 00:31:28;;;;;;;22.58;18.25;;;14.80;99.90;;;;;;4917594;29;20404;-90
2021/09/22 00:33:54;;;;;;;23.48;18.20;;;14.80;99.90;;;;;;4919750;29;20020;-88
2021/09/22 00:36:20;;;;;;;21.40;17.90;;;14.70;99.90;;;;;;4911782;29;20080;-88
2021/09/22 00:38:46;;;;;;;20.60;17.88;;;14.70;99.90;;;;;;4913686;29;20028;-87
2021/09/22 00:41:11;;;;;;;21.30;17.85;;;14.70;99.90;;;;;;4922423;29;20032;-88
2021/09/22 00:43:37;;;;;;;23.83;18.30;;;14.70;99.90;;;;;;4927306;29;20032;-88
2021/09/22 00:46:05;;;;;;;20.75;18.20;;;14.70;99.90;;;;;;4936887;29;20575;-87
2021/09/22 00:48:35;;;;;;;23.45;18.25;;;14.70;99.90;;;;;;4916915;29;20039;-87
2021/09/22 00:51:06;;;;;;;22.50;18.42;;;14.70;99.90;;;;;;4927026;29;20024;-88
2021/09/22 00:53:35;;;;;;;22.65;18.92;;;14.70;99.90;;;;;;4923553;29;20134;-87
2021/09/22 00:56:03;;;;;;;22.63;19.35;;;14.60;99.90;;;;;;4936926;29;20056;-87
2021/09/22 00:58:30;;;;;;;22.83;18.05;;;14.60;99.90;;;;;;4924392;29;20035;-87
2021/09/22 01:00:56;;;;;;;23.42;19.25;;;14.60;99.90;;;;;;4922633;29;20024;-87
2021/09/22 01:03:22;;;;;;;23.08;19.15;;;14.50;99.90;;;;;;4921988;29;20426;-87
2021/09/22 01:05:49;;;;;;;25.27;19.05;;;14.50;99.90;;;;;;4933815;29;20039;-87
2021/09/22 01:08:16;;;;;;;22.27;18.85;;;14.50;99.90;;;;;;4917199;29;20425;-87
2021/09/22 01:10:44;;;;;;;22.50;19.05;;;14.50;99.90;;;;;;4917940;29;20079;-87
2021/09/22 01:13:09;;;;;;;23.02;18.73;;;14.50;99.90;;;;;;4917593;29;20028;-92
2021/09/22 01:15:38;;;;;;;24.40;18.33;;;14.50;99.90;;;;;;4927660;29;20025;-88
2021/09/22 01:18:12;;;;;;;23.00;19.05;;;14.50;99.90;;;;;;4906325;29;20031;-89
2021/09/22 01:20:39;;;;;;;24.25;18.70;;;14.50;99.90;;;;;;4909511;29;20092;-87
2021/09/22 01:23:06;;;;;;;23.80;18.67;;;14.50;99.90;;;;;;4906115;29;20075;-88
2021/09/22 01:25:36;;;;;;;24.60;19.88;;;14.40;99.90;;;;;;4914385;29;20031;-88
2021/09/22 01:28:02;;;;;;;22.30;18.65;;;14.40;99.90;;;;;;4914264;29;20028;-89
2021/09/22 01:30:29;;;;;;;23.70;19.17;;;14.30;99.90;;;;;;4914163;29;20035;-87
2021/09/22 01:32:57;;;;;;;26.30;19.85;;;14.30;99.90;;;;;;4914557;29;20460;-87
2021/09/22 01:35:23;;;;;;;23.40;20.15;;;14.40;99.90;;;;;;4912383;29;20107;-88
2021/09/22 01:37:49;;;;;;;24.42;20.35;;;14.30;99.90;;;;;;4913839;29;20048;-87
2021/09/22 01:40:15;;;;;;;26.98;20.80;;;14.20;99.90;;;;;;4913694;29;20111;-89
2021/09/22 01:42:41;;;;;;;25.75;19.65;;;14.20;99.90;;;;;;4914177;29;20605;-87
2021/09/22 01:45:09;;;;;;;29.48;20.50;;;14.30;99.90;;;;;;4913728;29;20040;-87
2021/09/22 01:47:35;;;;;;;25.17;20.38;;;14.30;99.90;;;;;;4914292;29;20095;-88
2021/09/22 01:50:03;;;;;;;24.38;20.27;;;14.30;99.90;;;;;;4914188;29;20028;-89
2021/09/22 01:52:32;;;;;;;25.23;20.65;;;14.30;99.90;;;;;;4914370;29;20056;-87
2021/09/22 01:54:58;;;;;;;27.17;19.23;;;14.30;99.90;;;;;;4909191;29;20029;-87
2021/09/22 01:57:23;;;;;;;25.27;20.00;;;14.30;99.90;;;;;;4921612;29;20031;-87
2021/09/22 01:59:50;;;;;;;24.40;20.00;;;14.30;99.90;;;;;;4914775;29;20024;-87
2021/09/22 02:02:16;;;;;;;24.38;21.00;;;14.20;99.90;;;;;;4918222;29;20046;-87
2021/09/22 02:04:41;;;;;;;22.65;19.75;;;14.20;99.90;;;;;;4936037;29;20036;-87
2021/09/22 02:07:07;;;;;;;25.30;20.30;;;14.20;99.90;;;;;;4917114;29;20520;-88
2021/09/22 02:09:33;;;;;;;26.25;20.40;;;14.20;99.90;;;;;;4917035;29;20087;-88
2021/09/22 02:11:59;;;;;;;27.23;20.15;;;14.20;99.90;;;;;;4915348;29;20536;-88
2021/09/22 02:14:24;;;;;;;25.30;20.40;;;14.20;99.90;;;;;;4917552;29;20052;-93
2021/09/22 02:16:50;;;;;;;23.75;19.80;;;14.20;99.90;;;;;;4916698;29;20031;-87
2021/09/22 02:19:15;;;;;;;26.85;20.67;;;14.10;99.90;;;;;;4916708;29;20031;-88
2021/09/22 02:21:41;;;;;;;24.27;20.30;;;14.10;99.90;;;;;;4916912;29;20118;-88
2021/09/22 02:24:07;;;;;;;26.65;20.50;;;14.10;99.90;;;;;;4916680;29;20036;-88
2021/09/22 02:26:32;;;;;;;26.88;21.02;;;14.10;99.90;;;;;;4917866;29;20034;-88
2021/09/22 02:28:58;;;;;;;24.27;19.23;;;14.10;99.90;;;;;;4916597;29;20121;-88
2021/09/22 02:31:24;;;;;;;26.40;20.17;;;14.10;99.90;;;;;;4916735;29;20083;-94
2021/09/22 02:33:49;;;;;;;26.00;19.98;;;14.10;99.90;;;;;;4916438;29;20035;-87
2021/09/22 02:36:15;;;;;;;26.75;20.10;;;14.10;99.90;;;;;;4915462;29;20028;-87
2021/09/22 02:38:41;;;;;;;27.95;21.15;;;14.00;99.90;;;;;;4916675;29;20483;-88
2021/09/22 02:41:06;;;;;;;26.23;20.48;;;14.00;99.90;;;;;;4916461;29;20091;-87
2021/09/22 02:43:32;;;;;;;25.52;20.23;;;14.00;99.90;;;;;;4928875;29;20041;-88
2021/09/22 02:45:58;;;;;;;24.85;21.13;;;14.00;99.90;;;;;;4912486;29;20378;-93
2021/09/22 02:48:24;;;;;;;28.48;19.98;;;14.00;99.90;;;;;;4916811;29;20084;-92
2021/09/22 02:50:51;;;;;;;25.75;21.20;;;13.90;99.90;;;;;;4915964;29;20025;-87
2021/09/22 02:53:18;;;;;;;23.67;19.40;;;13.90;99.90;;;;;;4917191;29;20023;-88
2021/09/22 02:55:43;;;;;;;29.92;22.90;;;13.90;99.90;;;;;;4916978;29;20028;-88
2021/09/22 02:58:09;;;;;;;25.35;21.30;;;13.80;99.90;;;;;;4916506;29;20074;-88
2021/09/22 03:00:35;;;;;;;28.23;21.73;;;13.80;99.90;;;;;;4917195;29;20036;-87
2021/09/22 03:03:01;;;;;;;25.65;20.23;;;13.80;99.90;;;;;;4916423;29;20030;-87
2021/09/22 03:05:26;;;;;;;34.58;22.08;;;13.80;99.90;;;;;;4915758;29;20036;-88
2021/09/22 03:07:53;;;;;;;25.42;20.77;;;13.80;99.90;;;;;;4915798;29;20032;-88
2021/09/22 03:10:20;;;;;;;30.20;21.55;;;13.80;99.90;;;;;;4915465;29;20095;-88
2021/09/22 03:12:47;;;;;;;26.52;21.23;;;13.80;99.90;;;;;;4916283;29;20036;-88
2021/09/22 03:15:12;;;;;;;27.60;20.20;;;13.70;99.90;;;;;;4913065;29;20032;-92
2021/09/22 03:17:38;;;;;;;25.88;21.20;;;13.70;99.90;;;;;;4915889;29;20549;-87
2021/09/22 03:20:08;;;;;;;28.10;21.92;;;13.80;99.90;;;;;;4915764;29;20091;-88
2021/09/22 03:22:34;;;;;;;27.45;22.00;;;13.70;99.90;;;;;;4916240;29;20048;-93
2021/09/22 03:24:59;;;;;;;29.52;21.92;;;13.70;99.90;;;;;;4928040;29;20056;-87
2021/09/22 03:27:25;;;;;;;26.65;21.98;;;13.70;99.90;;;;;;4914058;29;20028;-89
2021/09/22 03:29:51;;;;;;;26.05;21.77;;;13.70;99.90;;;;;;4916057;29;20031;-88
2021/09/22 03:32:17;;;;;;;27.88;22.60;;;13.80;99.90;;;;;;4916177;29;20085;-88
2021/09/22 03:34:43;;;;;;;28.58;22.77;;;13.70;99.90;;;;;;4915642;29;20035;-88
2021/09/22 03:37:09;;;;;;;28.88;22.05;;;13.70;99.90;;;;;;4916133;29;20035;-87
2021/09/22 03:39:34;;;;;;;27.63;21.95;;;13.70;99.90;;;;;;4915896;29;20036;-88
2021/09/22 03:42:00;;;;;;;27.85;22.05;;;13.70;99.90;;;;;;4915611;29;20032;-88
2021/09/22 03:44:26;;;;;;;25.77;21.85;;;13.70;99.90;;;;;;4915529;29;20501;-93
2021/09/22 03:46:53;;;;;;;28.92;23.40;;;13.70;99.90;;;;;;4915775;29;20501;-87
2021/09/22 03:49:19;;;;;;;27.40;21.95;;;13.80;99.90;;;;;;4931764;29;20035;-88
2021/09/22 03:51:46;;;;;;;30.40;22.50;;;13.80;99.90;;;;;;4908784;29;20031;-88
2021/09/22 03:54:11;;;;;;;28.77;22.73;;;13.80;99.90;;;;;;4916183;29;20083;-88
2021/09/22 03:56:37;;;;;;;28.55;22.55;;;13.80;99.90;;;;;;4915740;29;20035;-93
2021/09/22 03:59:03;;;;;;;29.25;21.35;;;13.80;99.90;;;;;;4915835;29;20090;-88
2021/09/22 04:01:29;;;;;;;29.25;22.77;;;13.80;99.90;;;;;;4906085;29;20028;-88
2021/09/22 04:03:54;;;;;;;29.23;22.48;;;13.80;99.90;;;;;;4915154;29;20115;-93
2021/09/22 04:06:20;;;;;;;29.83;23.45;;;13.80;99.90;;;;;;4915499;29;20024;-88
2021/09/22 04:08:46;;;;;;;30.95;23.77;;;13.80;99.90;;;;;;4915101;29;20103;-88
2021/09/22 04:11:12;;;;;;;27.20;22.40;;;13.80;99.90;;;;;;4929801;29;20035;-92
2021/09/22 04:13:37;;;;;;;29.42;23.38;;;13.80;99.90;;;;;;4912732;29;20043;-88
2021/09/22 04:16:04;;;;;;;27.73;23.27;;;13.80;99.90;;;;;;4910688;29;20025;-89
2021/09/22 04:18:29;;;;;;;32.00;24.92;;;13.80;99.90;;;;;;4910006;29;20028;-87
2021/09/22 04:20:55;;;;;;;31.60;24.27;;;13.80;99.90;;;;;;4925460;29;20041;-88
2021/09/22 04:23:21;;;;;;;27.73;22.60;;;13.80;99.90;;;;;;4906667;29;20445;-88
2021/09/22 04:25:47;;;;;;;31.02;24.92;;;13.80;99.90;;;;;;4915734;29;20072;-94
2021/09/22 04:28:13;;;;;;;34.33;25.17;;;13.70;99.90;;;;;;4910547;29;20077;-88
2021/09/22 04:30:38;;;;;;;31.73;24.20;;;13.70;99.90;;;;;;4896991;29;20449;-88
2021/09/22 04:33:04;;;;;;;32.70;22.65;;;13.70;99.90;;;;;;4905573;29;20560;-85
2021/09/22 04:35:31;;;;;;;28.42;23.48;;;13.70;99.90;;;;;;4904346;29;20039;-87
2021/09/22 04:37:57;;;;;;;28.55;23.13;;;13.80;99.90;;;;;;4898321;29;20521;-87
2021/09/22 04:40:28;;;;;;;33.97;24.15;;;13.80;99.90;;;;;;4900241;29;20513;-87
2021/09/22 04:42:54;;;;;;;31.23;24.35;;;13.80;99.90;;;;;;4913764;29;20020;-87
2021/09/22 04:45:22;;;;;;;29.23;23.38;;;13.70;99.90;;;;;;4913177;29;20099;-87
2021/09/22 04:47:48;;;;;;;29.67;23.88;;;13.70;99.90;;;;;;4913073;29;20544;-87
2021/09/22 04:50:14;;;;;;;30.95;24.08;;;13.60;99.90;;;;;;4913053;29;20024;-87
2021/09/22 04:52:39;;;;;;;29.90;23.08;;;13.60;99.90;;;;;;4913055;29;20032;-87
2021/09/22 04:55:05;;;;;;;32.33;24.30;;;13.60;99.90;;;;;;4927500;29;20028;-87
2021/09/22 04:57:31;;;;;;;31.00;25.00;;;13.60;99.90;;;;;;4908277;29;20025;-87
2021/09/22 04:59:56;;;;;;;31.77;24.13;;;13.60;99.90;;;;;;4897413;29;20037;-87
2021/09/22 05:02:22;;;;;;;34.33;23.30;;;13.60;99.90;;;;;;4900825;29;20234;-87
2021/09/22 05:04:48;;;;;;;29.48;24.05;;;13.60;99.90;;;;;;4911094;29;20063;-87
2021/09/22 05:07:13;;;;;;;31.55;24.90;;;13.60;99.90;;;;;;4910932;29;20020;-87
2021/09/22 05:09:39;;;;;;;32.03;24.52;;;13.60;99.90;;;;;;4912795;29;20227;-86
2021/09/22 05:12:05;;;;;;;30.45;23.42;;;13.50;99.90;;;;;;4915395;29;20036;-87
2021/09/22 05:14:31;;;;;;;34.50;25.92;;;13.50;99.90;;;;;;4923270;29;20024;-88
2021/09/22 05:16:57;;;;;;;29.77;23.98;;;13.50;99.90;;;;;;4922507;29;20232;-88
2021/09/22 05:19:22;;;;;;;35.47;25.00;;;13.50;99.90;;;;;;4917382;29;20069;-87
2021/09/22 05:21:48;;;;;;;35.42;25.23;;;13.50;99.90;;;;;;4927921;29;20062;-87
2021/09/22 05:24:15;;;;;;;33.17;25.85;;;13.40;99.90;;;;;;4912342;29;20111;-87
2021/09/22 05:26:40;;;;;;;36.22;26.25;;;13.50;99.90;;;;;;4917358;29;20240;-88
2021/09/22 05:29:06;;;;;;;31.65;25.50;;;13.50;99.90;;;;;;4905211;29;20030;-88
2021/09/22 05:31:32;;;;;;;36.88;25.73;;;13.50;99.90;;;;;;4903056;29;20017;-88
2021/09/22 05:33:57;;;;;;;34.25;25.30;;;13.50;99.90;;;;;;4929348;29;20091;-87
2021/09/22 05:36:23;;;;;;;33.55;25.15;;;13.50;99.90;;;;;;4910334;29;20016;-88
2021/09/22 05:38:49;;;;;;;34.25;25.02;;;13.50;99.90;;;;;;4907571;29;20036;-88
2021/09/22 05:41:15;;;;;;;31.13;25.30;;;13.50;99.90;;;;;;4918526;29;20018;-89
2021/09/22 05:43:40;;;;;;;32.10;24.85;;;13.50;99.90;;;;;;4929953;29;20505;-90
2021/09/22 05:46:06;;;;;;;32.90;24.73;;;13.50;99.90;;;;;;4917766;29;20020;-89
2021/09/22 05:48:32;;;;;;;35.75;25.45;;;13.50;99.90;;;;;;4914087;29;20032;-89
2021/09/22 05:50:58;;;;;;;34.45;25.10;;;13.50;99.90;;;;;;4912005;29;20025;-89
2021/09/22 05:53:24;;;;;;;34.38;26.08;;;13.50;99.90;;;;;;4914428;29;20123;-89
2021/09/22 05:55:50;;;;;;;33.95;24.83;;;13.50;99.90;;;;;;4912243;29;20106;-88
2021/09/22 05:58:19;;;;;;;37.10;25.98;;;13.40;99.90;;;;;;4916840;29;20020;-88
2021/09/22 06:00:48;;;;;;;34.92;26.45;;;13.40;99.90;;;;;;4913300;29;20032;-88
2021/09/22 06:03:14;;;;;;;34.65;27.17;;;13.40;99.90;;;;;;4913764;29;20039;-89
2021/09/22 06:05:39;;;;;;;32.60;25.88;;;13.40;99.90;;;;;;4912797;29;20032;-88
2021/09/22 06:08:07;;;;;;;32.65;25.90;;;13.40;99.90;;;;;;4914223;29;20059;-88
2021/09/22 06:10:33;;;;;;;34.30;25.02;;;13.40;99.90;;;;;;4916762;29;20389;-89
2021/09/22 06:12:59;;;;;;;35.80;26.33;;;13.50;99.90;;;;;;4915311;29;20021;-88
2021/09/22 06:15:25;;;;;;;30.30;24.90;;;13.50;99.90;;;;;;4918866;29;20024;-89
2021/09/22 06:17:51;;;;;;;35.28;26.08;;;13.60;99.90;;;;;;4918517;29;20120;-90
2021/09/22 06:20:17;;;;;;;33.15;25.45;;;13.60;99.90;;;;;;4917576;29;20024;-90
2021/09/22 06:22:43;;;;;;;37.42;24.45;;;13.60;99.90;;;;;;4918934;29;20032;-90
2021/09/22 06:25:09;;;;;;;32.90;24.58;;;13.60;99.90;;;;;;4917412;29;20039;-90
2021/09/22 06:27:35;;;;;;;31.83;26.23;;;13.70;99.90;;;;;;4917554;29;20028;-90
2021/09/22 06:30:01;;;;;;;35.55;25.58;;;13.50;99.90;;;;;;4918671;29;20453;-89
2021/09/22 06:32:27;;;;;;;34.90;26.13;;;13.60;99.90;;;;;;4917570;29;20548;-90
2021/09/22 06:34:53;;;;;;;31.05;24.23;;;13.70;99.90;;;;;;4918252;29;20011;-91
2021/09/22 06:37:18;;;;;;;36.55;26.77;;;13.70;99.90;;;;;;4914930;29;20032;-90
2021/09/22 06:39:44;;;;;;;34.22;25.23;;;13.70;99.90;;;;;;4904486;29;20103;-91
2021/09/22 06:42:12;;;;;;;34.40;24.83;;;13.70;99.90;;;;;;4916295;29;20035;-91
2021/09/22 06:44:38;;;;;;;35.00;26.48;;;13.70;99.90;;;;;;4915679;29;20040;-90
2021/09/22 06:47:05;;;;;;;33.35;25.52;;;13.80;99.90;;;;;;4914891;29;20027;-91
2021/09/22 06:49:31;;;;;;;35.78;26.10;;;13.70;99.90;;;;;;4917447;29;20067;-90
2021/09/22 06:51:57;;;;;;;37.10;26.45;;;13.80;99.90;;;;;;4915600;29;20059;-91
2021/09/22 06:54:23;;;;;;;33.30;25.65;;;13.80;99.90;;;;;;4914177;29;20032;-91
2021/09/22 06:56:49;;;;;;;34.28;26.85;;;13.90;99.90;;;;;;4918358;29;20025;-91
2021/09/22 06:59:15;;;;;;;33.72;26.42;;;14.00;99.90;;;;;;4916197;29;20039;-91
2021/09/22 07:01:41;;;;;;;30.65;25.52;;;14.00;99.90;;;;;;4915899;29;20099;-90
2021/09/22 07:04:08;;;;;;;31.60;25.50;;;14.10;99.90;;;;;;4915865;29;20118;-90
2021/09/22 07:06:34;;;;;;;34.67;25.08;;;14.10;99.90;;;;;;4915357;29;20027;-91
2021/09/22 07:09:00;;;;;;;31.45;24.35;;;14.20;99.90;;;;;;4915706;29;20040;-91
2021/09/22 07:11:25;;;;;;;34.58;24.70;;;14.20;99.90;;;;;;4916018;29;20028;-91
2021/09/22 07:13:51;;;;;;;33.25;25.25;;;14.30;99.90;;;;;;4926866;29;20025;-90
2021/09/22 07:16:17;;;;;;;31.90;24.67;;;14.40;99.90;;;;;;4905973;29;20020;-91
2021/09/22 07:18:44;;;;;;;34.60;25.65;;;14.40;99.90;;;;;;4929016;29;20019;-91
2021/09/22 07:21:10;;;;;;;32.80;25.25;;;14.50;99.90;;;;;;4904437;29;20052;-91
2021/09/22 07:23:37;;;;;;;34.85;24.80;;;14.50;99.90;;;;;;4911121;29;20196;-91
2021/09/22 07:26:03;;;;;;;30.33;23.88;;;14.50;99.90;;;;;;4926563;29;20029;-90
2021/09/22 07:28:30;;;;;;;32.30;24.23;;;14.50;99.90;;;;;;4907098;29;20036;-89
2021/09/22 07:30:56;;;;;;;32.72;25.00;;;14.50;99.90;;;;;;4913561;29;20494;-90
2021/09/22 07:33:22;;;;;;;34.28;23.38;;;14.60;99.90;;;;;;4926256;29;20032;-90
2021/09/22 07:35:48;;;;;;;28.75;23.17;;;14.80;99.90;;;;;;4913422;29;20027;-89
2021/09/22 07:38:14;;;;;;;27.90;21.88;;;14.80;99.90;;;;;;4916896;29;20035;-90
2021/09/22 07:40:40;;;;;;;30.08;23.75;;;14.90;99.90;;;;;;4913931;29;20035;-90
2021/09/22 07:43:09;;;;;;;28.98;22.38;;;14.90;99.90;;;;;;4917029;29;20123;-90
2021/09/22 07:45:36;;;;;;;27.70;22.38;;;15.00;99.90;;;;;;4915060;29;20071;-90
2021/09/22 07:48:02;;;;;;;26.58;21.60;;;15.00;99.90;;;;;;4914912;29;20020;-90
2021/09/22 07:50:28;;;;;;;27.80;21.63;;;15.10;99.90;;;;;;4914964;29;20525;-90
2021/09/22 07:52:56;;;;;;;29.20;22.27;;;15.20;99.90;;;;;;4915190;29;20048;-90
2021/09/22 07:55:23;;;;;;;24.25;20.70;;;15.20;99.90;;;;;;4916410;29;20224;-90
2021/09/22 07:57:52;;;;;;;27.05;21.95;;;15.30;99.90;;;;;;4912818;29;20104;-90
2021/09/22 08:00:19;;;;;;;25.63;21.25;;;15.30;99.90;;;;;;4915034;29;20055;-90
2021/09/22 08:02:44;;;;;;;24.60;21.08;;;15.40;99.90;;;;;;4915108;29;20075;-90
2021/09/22 08:05:11;;;;;;;25.00;20.73;;;15.50;99.90;;;;;;4914865;29;20473;-90
2021/09/22 08:07:37;;;;;;;25.27;19.98;;;15.60;99.90;;;;;;4915020;29;20111;-90
2021/09/22 08:10:04;;;;;;;25.35;20.67;;;15.70;99.90;;;;;;4927363;29;20450;-90
2021/09/22 08:12:30;;;;;;;27.30;20.67;;;15.70;99.90;;;;;;4914796;29;20028;-90
2021/09/22 08:14:56;;;;;;;24.20;20.27;;;15.80;99.90;;;;;;4915443;29;20043;-89
2021/09/22 08:17:21;;;;;;;22.20;19.60;;;15.90;99.90;;;;;;4908348;29;20133;-90
2021/09/22 08:19:47;;;;;;;24.30;19.23;;;16.00;99.90;;;;;;4905360;29;20039;-90
2021/09/22 08:22:13;;;;;;;21.10;18.23;;;16.00;99.90;;;;;;4925558;29;20056;-90
2021/09/22 08:24:39;;;;;;;23.13;17.73;;;16.10;99.90;;;;;;4934615;29;20086;-90
2021/09/22 08:27:05;;;;;;;21.23;18.27;;;16.30;99.90;;;;;;4915319;29;20020;-90
2021/09/22 08:29:32;;;;;;;21.33;17.65;;;16.30;99.90;;;;;;4914468;29;20024;-90
2021/09/22 08:31:58;;;;;;;21.63;17.90;;;16.40;99.90;;;;;;4914517;29;20024;-90
2021/09/22 08:34:24;;;;;;;22.17;18.70;;;16.50;99.90;;;;;;4917580;29;20111;-90
2021/09/22 08:36:51;;;;;;;21.55;18.15;;;16.50;99.90;;;;;;4921549;29;20059;-90
2021/09/22 08:39:18;;;;;;;23.52;17.80;;;16.50;99.90;;;;;;4937891;29;20021;-90
2021/09/22 08:41:44;;;;;;;20.77;17.02;;;16.60;99.90;;;;;;4922620;29;20024;-90
2021/09/22 08:44:12;;;;;;;23.55;16.90;;;16.60;99.90;;;;;;4923235;29;20047;-90
2021/09/22 08:46:41;;;;;;;21.42;16.90;;;16.60;99.90;;;;;;4944986;29;20485;-90
2021/09/22 08:49:09;;;;;;;18.35;16.02;;;16.70;99.90;;;;;;4915631;29;20481;-90
2021/09/22 08:51:35;;;;;;;20.08;16.83;;;16.80;99.90;;;;;;4927218;29;20028;-90
2021/09/22 08:54:01;;;;;;;19.23;16.25;;;16.90;99.90;;;;;;4907040;29;20032;-90
2021/09/22 08:56:28;;;;;;;20.33;15.63;;;17.00;99.90;;;;;;4925008;29;20081;-89
2021/09/22 08:58:54;;;;;;;19.55;15.55;;;17.20;99.90;;;;;;4904078;29;20405;-90
2021/09/22 09:01:22;;;;;;;19.13;15.20;;;17.30;99.90;;;;;;4913269;29;20054;-90
2021/09/22 09:03:49;;;;;;;20.58;15.05;;;17.40;99.90;;;;;;4914137;29;20493;-89
2021/09/22 09:06:14;;;;;;;19.17;15.50;;;17.50;99.90;;;;;;4910789;29;20715;-89
2021/09/22 09:08:40;;;;;;;18.85;15.57;;;17.60;99.90;;;;;;4903083;29;20276;-89
2021/09/22 09:11:06;;;;;;;18.33;15.50;;;17.70;99.90;;;;;;4929190;29;20052;-90
2021/09/22 09:13:54;;;;;;;15.93;14.20;;;17.80;99.90;;;;;;4913267;29;20032;-90
2021/09/22 09:16:22;;;;;;;17.92;14.30;;;17.90;99.90;;;;;;4917518;29;20552;-90
2021/09/22 09:18:54;;;;;;;16.35;13.57;;;18.00;99.90;;;;;;4917512;29;20091;-90
2021/09/22 09:21:24;;;;;;;15.73;12.88;;;18.10;99.90;;;;;;4918436;29;20397;-89
2021/09/22 09:23:53;;;;;;;15.40;12.73;;;18.20;99.90;;;;;;4931366;29;20146;-90
2021/09/22 09:26:28;;;;;;;14.40;12.38;;;18.30;99.90;;;;;;4928444;29;20028;-90
2021/09/22 09:28:59;;;;;;;18.83;12.77;;;18.50;99.90;;;;;;4913671;29;20032;-90
2021/09/22 09:31:32;;;;;;;13.32;11.57;;;18.60;99.90;;;;;;4928626;29;20032;-90
2021/09/22 09:34:01;;;;;;;13.07;11.73;;;18.70;99.90;;;;;;4913571;29;20032;-90
2021/09/22 09:36:34;;;;;;;12.75;11.45;;;18.80;99.90;;;;;;4928546;29;20033;-90
2021/09/22 09:39:03;;;;;;;12.43;11.13;;;18.90;99.90;;;;;;4911691;29;20075;-90
2021/09/22 09:41:42;;;;;;;12.30;10.50;;;18.90;99.90;;;;;;4912897;29;20108;-90
2021/09/22 09:44:11;;;;;;;10.40;9.30;;;18.90;99.90;;;;;;4913102;29;20524;-90
2021/09/22 09:46:38;;;;;;;12.52;9.55;;;19.10;99.90;;;;;;4929004;29;20060;-90
2021/09/22 09:49:05;;;;;;;9.93;8.82;;;19.10;99.90;;;;;;4928595;29;20029;-90
2021/09/22 09:51:43;;;;;;;11.32;8.75;;;19.20;99.90;;;;;;4917213;29;20458;-90
2021/09/22 09:54:16;;;;;;;10.63;8.38;;;19.40;99.90;;;;;;4916501;29;20032;-90
2021/09/22 09:56:42;;;;;;;10.82;8.43;;;19.60;99.90;;;;;;4917315;29;20035;-89
2021/09/22 09:59:08;;;;;;;9.70;8.00;;;19.70;99.90;;;;;;4928903;29;20024;-89
2021/09/22 10:01:47;;;;;;;11.57;8.40;;;19.80;99.90;;;;;;4916332;29;20374;-90
2021/09/22 10:04:16;;;;;;;9.18;7.70;;;19.80;99.90;;;;;;4927839;29;20040;-89
2021/09/22 10:06:43;;;;;;;11.20;7.68;;;19.90;99.90;;;;;;4914796;29;20051;-90
2021/09/22 10:09:10;;;;;;;10.40;8.18;;;20.00;99.90;;;;;;4905714;29;20020;-90
2021/09/22 10:11:38;;;;;;;8.38;7.45;;;20.00;99.90;;;;;;4928048;29;20051;-89
2021/09/22 10:14:06;;;;;;;9.20;7.75;;;20.10;99.90;;;;;;4917267;29;20024;-89
2021/09/22 10:16:35;;;;;;;7.22;6.13;;;20.20;99.90;;;;;;4916568;29;20028;-90
2021/09/22 10:19:02;;;;;;;8.73;6.00;;;20.30;99.90;;;;;;4915175;29;20024;-90
2021/09/22 10:21:30;;;;;;;6.72;6.03;;;20.30;99.90;;;;;;4917038;29;20135;-93
2021/09/22 10:23:59;;;;;;;7.50;6.35;;;20.50;99.90;;;;;;4921411;29;20072;-91
2021/09/22 10:26:27;;;;;;;6.68;5.97;;;20.70;99.90;;;;;;4933309;29;20504;-91
2021/09/22 10:28:56;;;;;;;6.53;5.88;;;20.80;99.90;;;;;;4908615;29;20489;-90
2021/09/22 10:31:27;;;;;;;5.93;5.32;;;20.90;99.90;;;;;;4917676;29;20035;-89
2021/09/22 10:33:53;;;;;;;8.63;5.82;;;21.00;99.90;;;;;;4904699;29;20043;-91
2021/09/22 10:36:34;;;;;;;5.93;5.32;;;21.00;99.90;;;;;;4907322;29;20116;-91
2021/09/22 10:39:00;;;;;;;5.63;5.03;;;21.10;99.90;;;;;;4902794;29;20020;-90
2021/09/22 10:41:33;;;;;;;5.55;4.88;;;21.10;99.90;;;;;;4920542;29;20114;-91
2021/09/22 10:43:59;;;;;;;5.53;4.65;;;21.30;99.90;;;;;;4928276;29;20047;-92
2021/09/22 10:46:29;;;;;;;5.63;5.13;;;21.40;99.90;;;;;;4907004;29;20131;-90
2021/09/22 10:48:56;;;;;;;6.40;4.63;;;21.60;99.90;;;;;;4915874;29;20401;-91
2021/09/22 10:51:30;;;;;;;7.85;4.78;;;21.70;99.90;;;;;;4915446;29;20080;-96
2021/09/22 10:54:09;;;;;;;6.35;3.83;;;21.80;99.90;;;;;;4916950;29;20371;-90
2021/09/22 10:56:47;;;;;;;6.45;4.57;;;21.90;99.00;;;;;;4916821;29;20024;-92
2021/09/22 10:59:35;;;;;;;6.03;4.40;;;22.10;99.00;;;;;;4917318;29;20418;-91
2021/09/22 11:02:02;;;;;;;6.82;4.40;;;22.20;99.00;;;;;;4918064;29;20087;-93
2021/09/22 11:04:55;;;;;;;5.40;4.68;;;22.20;97.30;;;;;;4903038;29;20044;-90
2021/09/22 11:07:22;;;;;;;5.22;4.50;;;22.20;97.60;;;;;;4916266;29;20016;-90
2021/09/22 11:09:48;;;;;;;5.03;3.92;;;22.30;96.40;;;;;;4915612;29;20028;-91
2021/09/22 11:12:16;;;;;;;5.32;4.32;;;22.20;96.70;;;;;;4917513;29;20039;-91
2021/09/22 11:14:47;;;;;;;8.88;4.30;;;22.40;95.90;;;;;;4916883;29;20032;-90
2021/09/22 11:17:33;;;;;;;5.32;4.43;;;22.50;95.20;;;;;;4927758;29;20056;-89
2021/09/22 11:20:15;;;;;;;4.78;4.30;;;22.40;95.20;;;;;;4904826;29;20386;-87
2021/09/22 11:22:40;;;;;;;6.82;4.47;;;22.40;94.80;;;;;;4918503;29;20047;-90
2021/09/22 11:25:08;;;;;;;4.10;3.60;;;22.50;95.60;;;;;;4916948;29;20205;-80
2021/09/22 11:27:34;;;;;;;6.65;4.30;;;22.50;94.80;;;;;;4911267;29;20261;-80
2021/09/22 11:30:06;;;;;;;5.60;4.18;;;22.60;94.60;;;;;;4918675;29;20036;-78
2021/09/22 11:32:36;;;;;;;6.78;4.07;;;22.70;95.10;;;;;;4913446;29;20023;-80
2021/09/22 11:35:12;;;;;;;11.02;4.13;;;22.80;95.00;;;;;;4914203;29;20028;-73
2021/09/22 11:37:51;;;;;;;4.65;4.10;;;22.90;95.20;;;;;;4906457;29;20516;-75
2021/09/22 11:40:34;;;;;;;8.30;3.97;;;23.10;93.40;;;;;;4910898;29;20040;-71
2021/09/22 11:43:13;;;;;;;3.63;3.30;;;23.20;93.70;;;;;;4917048;29;20052;-77
2021/09/22 11:46:01;;;;;;;4.47;3.50;;;23.20;93.10;;;;;;4916476;29;20024;-76
2021/09/22 11:48:34;;;;;;;15.60;4.00;;;23.30;91.60;;;;;;4915644;29;20016;-77
2021/09/22 11:51:04;;;;;;;4.72;3.50;;;23.50;92.20;;;;;;4915146;29;20473;-78
2021/09/22 11:53:32;;;;;;;8.23;4.07;;;23.60;91.80;;;;;;4925922;29;20505;-78
2021/09/22 11:55:59;;;;;;;4.72;3.92;;;23.70;91.60;;;;;;4901586;29;20466;-77
2021/09/22 11:58:27;;;;;;;6.53;3.92;;;23.80;91.30;;;;;;4916624;29;20020;-78
2021/09/22 12:00:55;;;;;;;4.40;4.00;;;23.80;90.70;;;;;;4914593;29;20470;-78
2021/09/22 12:03:24;;;;;;;4.80;3.42;;;23.70;90.40;;;;;;4918630;29;20032;-78
2021/09/22 12:06:10;;;;;;;4.63;3.63;;;23.80;90.50;;;;;;4915802;29;20028;-78
2021/09/22 12:08:38;;;;;;;3.88;3.53;;;24.00;90.00;;;;;;4917093;29;20036;-78
2021/09/22 12:11:05;;;;;;;4.35;3.60;;;24.00;89.20;;;;;;4915330;29;20118;-78
2021/09/22 12:13:38;;;;;;;4.25;3.55;;;23.90;88.70;;;;;;4914912;29;20115;-78
2021/09/22 12:16:04;;;;;;;5.80;3.28;;;24.00;89.40;;;;;;4915075;29;20739;-78
2021/09/22 12:18:30;;;;;;;4.80;3.22;;;24.00;87.50;;;;;;4915814;29;20032;-78
2021/09/22 12:20:56;;;;;;;5.55;3.40;;;24.00;87.70;;;;;;4913460;29;20502;-78
2021/09/22 12:23:30;;;;;;;3.70;3.35;;;24.20;85.90;;;;;;4916868;29;20083;-78
2021/09/22 12:26:26;;;;;;;5.15;3.08;;;24.40;83.30;;;;;;4917922;29;20035;-78
2021/09/22 12:29:12;;;;;;;7.32;3.20;;;24.50;84.70;;;;;;4929028;29;20047;-78
2021/09/22 12:31:41;;;;;;;4.55;2.97;;;24.70;85.10;;;;;;4913144;29;20588;-78
2021/09/22 12:34:25;;;;;;;3.42;3.10;;;24.70;84.20;;;;;;4916449;29;20040;-78